createdAt,value
2022-11-20T00:00:08.005Z,67.55
2022-11-20T00:02:54.140Z,67.49
2022-11-20T00:05:39.867Z,68.00
2022-11-20T00:08:25.543Z,67.89
2022-11-20T00:11:16.970Z,67.98
2022-11-20T00:14:03.628Z,67.79
2022-11-20T00:16:50.444Z,67.88
2022-11-20T00:19:36.464Z,68.52
2022-11-20T00:22:24.379Z,68.17
2022-11-20T00:25:10.416Z,68.50
2022-11-20T00:28:00.394Z,68.43
2022-11-20T00:30:46.522Z,68.57
2022-11-20T00:33:32.710Z,68.49
2022-11-20T00:36:20.852Z,68.26
2022-11-20T00:39:06.991Z,68.55
2022-11-20T00:41:53.343Z,68.22
2022-11-20T00:44:39.268Z,68.30
2022-11-20T00:47:25.337Z,68.64
2022-11-20T00:50:11.183Z,68.29
2022-11-20T00:52:56.927Z,68.16
2022-11-20T00:55:42.734Z,68.15
2022-11-20T00:58:33.922Z,68.40
2022-11-20T01:01:25.475Z,68.34
2022-11-20T01:04:11.406Z,68.29
2022-11-20T01:06:57.316Z,68.43
2022-11-20T01:09:43.100Z,68.20
2022-11-20T01:12:28.924Z,68.00
2022-11-20T01:15:14.708Z,68.30
2022-11-20T01:18:00.443Z,67.85
2022-11-20T01:20:46.461Z,68.09
2022-11-20T01:23:36.857Z,67.87
2022-11-20T01:26:28.709Z,67.89
2022-11-20T01:29:23.649Z,68.01
2022-11-20T01:32:09.933Z,68.11
2022-11-20T01:34:55.540Z,68.14
2022-11-20T01:37:41.533Z,68.16
2022-11-20T01:40:27.677Z,68.14
2022-11-20T01:43:23.850Z,67.80
2022-11-20T01:46:18.693Z,68.03
2022-11-20T01:49:23.747Z,68.28
2022-11-20T01:52:20.342Z,68.52
2022-11-20T01:55:10.132Z,68.43
2022-11-20T01:57:56.645Z,68.13
2022-11-20T02:00:42.472Z,68.34
2022-11-20T02:03:29.045Z,68.40
2022-11-20T02:06:23.814Z,68.34
2022-11-20T02:09:09.710Z,68.59
2022-11-20T02:11:56.196Z,68.55
2022-11-20T02:14:41.889Z,68.69
2022-11-20T02:17:28.149Z,68.69
2022-11-20T02:20:14.370Z,68.32
2022-11-20T02:23:06.440Z,68.82
2022-11-20T02:25:53.969Z,68.74
2022-11-20T02:28:40.119Z,68.61
2022-11-20T02:31:26.096Z,69.13
2022-11-20T02:34:12.399Z,68.96
2022-11-20T02:36:58.647Z,68.73
2022-11-20T02:39:46.021Z,69.38
2022-11-20T02:42:31.714Z,69.10
2022-11-20T02:45:17.395Z,69.13
2022-11-20T02:48:03.336Z,68.95
2022-11-20T02:50:49.439Z,69.02
2022-11-20T02:53:35.713Z,69.28
2022-11-20T02:56:21.583Z,69.27
2022-11-20T02:59:07.698Z,69.37
2022-11-20T03:01:53.273Z,68.91
2022-11-20T03:04:39.396Z,68.96
2022-11-20T03:07:25.903Z,68.86
2022-11-20T03:10:12.709Z,69.22
2022-11-20T03:12:58.833Z,69.21
2022-11-20T03:15:44.584Z,69.26
2022-11-20T03:18:30.334Z,69.18
2022-11-20T03:21:17.477Z,69.45
2022-11-20T03:24:04.235Z,69.33
2022-11-20T03:26:50.202Z,69.51
2022-11-20T03:29:39.063Z,69.41
2022-11-20T03:32:24.972Z,69.21
2022-11-20T03:35:11.017Z,69.17
2022-11-20T03:37:58.707Z,69.02
2022-11-20T03:40:44.506Z,68.95
2022-11-20T03:43:30.551Z,69.26
2022-11-20T03:46:17.192Z,69.28
2022-11-20T03:49:03.455Z,69.32
2022-11-20T03:51:49.299Z,69.06
2022-11-20T03:54:35.168Z,68.92
2022-11-20T03:57:20.857Z,69.07
2022-11-20T04:00:07.323Z,68.95
2022-11-20T04:02:53.398Z,69.17
2022-11-20T04:05:39.268Z,69.09
2022-11-20T04:08:25.088Z,68.90
2022-11-20T04:11:21.472Z,68.95
2022-11-20T04:14:14.119Z,68.90
2022-11-20T04:17:00.067Z,69.36
2022-11-20T04:19:45.719Z,69.10
2022-11-20T04:22:31.410Z,69.28
2022-11-20T04:25:17.134Z,69.24
2022-11-20T04:28:02.807Z,69.45
2022-11-20T04:30:48.589Z,69.50
2022-11-20T04:33:35.236Z,69.46
2022-11-20T04:36:23.059Z,69.28
2022-11-20T04:39:14.357Z,69.52
2022-11-20T04:42:19.819Z,69.44
2022-11-20T04:45:06.352Z,69.17
2022-11-20T04:47:52.089Z,69.24
2022-11-20T04:50:41.313Z,69.27
2022-11-20T04:53:27.634Z,69.64
2022-11-20T04:56:13.846Z,69.33
2022-11-20T04:59:03.195Z,69.20
2022-11-20T05:01:49.598Z,69.36
2022-11-20T05:04:35.342Z,69.32
2022-11-20T05:07:21.171Z,69.47
2022-11-20T05:10:07.597Z,69.54
2022-11-20T05:12:53.785Z,69.50
2022-11-20T05:15:39.863Z,69.43
2022-11-20T05:18:25.844Z,69.54
2022-11-20T05:21:12.851Z,69.41
2022-11-20T05:23:59.115Z,69.28
2022-11-20T05:26:45.547Z,69.83
2022-11-20T05:29:33.391Z,69.61
2022-11-20T05:32:26.540Z,69.45
2022-11-20T05:35:12.665Z,69.55
2022-11-20T05:37:58.334Z,70.00
2022-11-20T05:40:44.201Z,69.48
2022-11-20T05:43:33.206Z,69.55
2022-11-20T05:46:26.522Z,69.80
2022-11-20T05:49:15.632Z,70.16
2022-11-20T05:52:01.337Z,70.13
2022-11-20T05:54:47.052Z,69.69
2022-11-20T05:57:32.874Z,69.68
2022-11-20T06:00:18.849Z,69.80
2022-11-20T06:03:04.979Z,69.79
2022-11-20T06:05:50.685Z,69.88
2022-11-20T06:08:36.484Z,69.78
2022-11-20T06:11:22.961Z,69.63
2022-11-20T06:14:08.996Z,69.53
2022-11-20T06:16:54.736Z,69.71
2022-11-20T06:19:40.607Z,69.95
2022-11-20T06:22:26.498Z,70.09
2022-11-20T06:25:12.882Z,69.94
2022-11-20T06:27:58.662Z,69.83
2022-11-20T06:30:47.512Z,69.72
2022-11-20T06:33:33.703Z,70.32
2022-11-20T06:36:21.623Z,70.11
2022-11-20T06:39:08.679Z,69.94
2022-11-20T06:41:58.771Z,70.33
2022-11-20T06:44:45.460Z,70.06
2022-11-20T06:47:31.536Z,70.23
2022-11-20T06:50:17.585Z,70.26
2022-11-20T06:53:04.646Z,70.11
2022-11-20T06:55:51.360Z,70.10
2022-11-20T06:58:38.061Z,69.98
2022-11-20T07:01:24.077Z,70.19
2022-11-20T07:04:10.137Z,69.93
2022-11-20T07:06:55.857Z,70.13
2022-11-20T07:09:41.413Z,69.90
2022-11-20T07:12:27.378Z,69.88
2022-11-20T07:15:13.406Z,70.07
2022-11-20T07:18:03.608Z,69.99
2022-11-20T07:20:49.992Z,70.03
2022-11-20T07:23:37.083Z,69.99
2022-11-20T07:26:23.468Z,70.19
2022-11-20T07:29:10.420Z,70.07
2022-11-20T07:31:58.213Z,69.97
2022-11-20T07:34:45.308Z,69.70
2022-11-20T07:37:32.919Z,70.25
2022-11-20T07:40:22.131Z,70.17
2022-11-20T07:43:08.915Z,70.06
2022-11-20T07:45:59.889Z,70.09
2022-11-20T07:48:45.809Z,70.10
2022-11-20T07:51:31.649Z,70.33
2022-11-20T07:54:17.618Z,70.03
2022-11-20T07:57:03.847Z,70.25
2022-11-20T07:59:49.612Z,70.17
2022-11-20T08:02:41.264Z,70.16
2022-11-20T08:05:27.037Z,69.92
2022-11-20T08:08:12.998Z,69.98
2022-11-20T08:11:18.250Z,69.93
2022-11-20T08:14:13.145Z,70.14
2022-11-20T08:16:58.873Z,69.83
2022-11-20T08:19:44.651Z,70.14
2022-11-20T08:22:30.693Z,70.08
2022-11-20T08:25:17.192Z,69.84
2022-11-20T08:28:18.382Z,69.96
2022-11-20T08:31:06.126Z,69.90
2022-11-20T08:33:52.042Z,69.88
2022-11-20T08:36:38.293Z,69.76
2022-11-20T08:39:24.611Z,69.91
2022-11-20T08:42:10.694Z,69.87
2022-11-20T08:44:56.839Z,69.43
2022-11-20T08:47:43.508Z,69.60
2022-11-20T08:50:30.294Z,69.56
2022-11-20T08:53:16.344Z,69.85
2022-11-20T08:56:01.959Z,69.85
2022-11-20T08:59:17.901Z,70.13
2022-11-20T09:01:55.767Z,69.97
2022-11-20T09:04:41.960Z,70.06
2022-11-20T09:07:28.011Z,70.02
2022-11-20T09:10:29.226Z,69.70
2022-11-20T09:13:15.269Z,69.78
2022-11-20T09:16:04.134Z,69.81
2022-11-20T09:19:02.206Z,69.51
2022-11-20T09:21:59.918Z,69.58
2022-11-20T09:24:46.080Z,69.72
2022-11-20T09:27:31.851Z,70.02
2022-11-20T09:30:17.737Z,69.75
2022-11-20T09:33:05.813Z,70.07
2022-11-20T09:35:51.964Z,69.95
2022-11-20T09:38:37.775Z,70.11
2022-11-20T09:41:42.235Z,69.89
2022-11-20T09:44:57.508Z,70.12
2022-11-20T09:48:07.897Z,69.64
2022-11-20T09:51:29.602Z,69.67
2022-11-20T09:54:22.136Z,69.79
2022-11-20T09:57:17.174Z,69.59
2022-11-20T10:00:05.801Z,69.58
2022-11-20T10:03:04.043Z,69.47
2022-11-20T10:05:54.365Z,69.45
2022-11-20T10:08:48.286Z,69.35
2022-11-20T10:11:52.505Z,69.34
2022-11-20T10:14:56.960Z,69.11
2022-11-20T10:18:12.092Z,69.34
2022-11-20T10:21:23.474Z,69.12
2022-11-20T10:24:31.500Z,69.36
2022-11-20T10:27:40.573Z,69.28
2022-11-20T10:30:28.452Z,69.18
2022-11-20T10:33:18.713Z,69.46
2022-11-20T10:36:15.452Z,69.33
2022-11-20T10:39:18.199Z,69.02
2022-11-20T10:42:06.807Z,69.64
2022-11-20T10:45:06.042Z,69.61
2022-11-20T10:48:14.349Z,69.40
2022-11-20T10:51:06.359Z,69.20
2022-11-20T10:54:09.259Z,69.13
2022-11-20T10:57:11.267Z,69.12
2022-11-20T11:00:07.496Z,69.00
2022-11-20T11:02:54.634Z,69.09
2022-11-20T11:05:52.086Z,69.05
2022-11-20T11:08:40.242Z,69.09
2022-11-20T11:11:30.247Z,69.13
2022-11-20T11:14:17.375Z,68.94
2022-11-20T11:17:03.661Z,68.92
2022-11-20T11:20:25.750Z,68.86
2022-11-20T11:23:27.879Z,69.04
2022-11-20T11:26:24.277Z,68.89
2022-11-20T11:29:18.712Z,68.89
2022-11-20T11:32:17.125Z,68.54
2022-11-20T11:35:05.120Z,68.37
2022-11-20T11:37:52.166Z,68.47
2022-11-20T11:40:41.020Z,68.55
2022-11-20T11:43:48.573Z,68.74
2022-11-20T11:46:36.429Z,68.57
2022-11-20T11:49:23.213Z,68.15
2022-11-20T11:52:08.913Z,68.16
2022-11-20T11:54:57.087Z,68.35
2022-11-20T11:57:51.319Z,68.24
2022-11-20T12:00:38.724Z,68.25
2022-11-20T12:03:37.180Z,67.88
2022-11-20T12:06:24.012Z,67.96
2022-11-20T12:09:11.589Z,68.11
2022-11-20T12:12:10.226Z,67.83
2022-11-20T12:14:57.546Z,68.03
2022-11-20T12:17:45.853Z,68.27
2022-11-20T12:20:36.549Z,68.42
2022-11-20T12:23:49.468Z,68.36
2022-11-20T12:26:55.696Z,68.51
2022-11-20T12:30:10.166Z,68.61
2022-11-20T12:33:02.040Z,68.41
2022-11-20T12:36:09.902Z,68.61
2022-11-20T12:39:33.370Z,68.60
2022-11-20T12:42:43.519Z,68.50
2022-11-20T12:45:47.972Z,68.72
2022-11-20T12:48:50.184Z,68.74
2022-11-20T12:51:39.498Z,68.82
2022-11-20T12:54:48.152Z,68.87
2022-11-20T12:57:50.240Z,68.73
2022-11-20T13:00:37.512Z,69.01
2022-11-20T13:03:23.550Z,68.79
2022-11-20T13:06:18.646Z,68.67
2022-11-20T13:09:08.037Z,68.95
2022-11-20T13:12:05.582Z,69.08
2022-11-20T13:15:34.246Z,68.97
2022-11-20T13:18:20.424Z,68.95
2022-11-20T13:21:20.462Z,68.65
2022-11-20T13:24:25.343Z,68.95
2022-11-20T13:27:14.944Z,68.88
2022-11-20T13:30:02.561Z,68.78
2022-11-20T13:32:57.261Z,68.43
2022-11-20T13:35:43.872Z,68.40
2022-11-20T13:38:33.853Z,68.43
2022-11-20T13:41:42.387Z,68.48
2022-11-20T13:44:43.662Z,68.14
2022-11-20T13:47:30.743Z,68.11
2022-11-20T13:50:16.788Z,68.31
2022-11-20T13:53:27.927Z,68.00
2022-11-20T13:56:32.127Z,68.14
2022-11-20T13:59:43.084Z,68.15
2022-11-20T14:02:30.422Z,68.08
2022-11-20T14:05:21.850Z,67.98
2022-11-20T14:08:15.397Z,68.18
2022-11-20T14:11:23.746Z,68.04
2022-11-20T14:14:27.382Z,68.10
2022-11-20T14:17:24.203Z,68.18
2022-11-20T14:20:15.461Z,68.20
2022-11-20T14:23:01.601Z,68.16
2022-11-20T14:25:47.394Z,68.00
2022-11-20T14:28:33.531Z,68.13
2022-11-20T14:31:25.365Z,67.90
2022-11-20T14:34:24.683Z,68.00
2022-11-20T14:37:19.613Z,68.22
2022-11-20T14:40:26.741Z,68.37
2022-11-20T14:43:26.566Z,68.30
2022-11-20T14:46:13.074Z,68.25
2022-11-20T14:49:02.284Z,67.85
2022-11-20T14:51:48.740Z,67.95
2022-11-20T14:54:44.915Z,68.01
2022-11-20T14:57:35.915Z,67.98
2022-11-20T15:00:23.143Z,68.03
2022-11-20T15:03:19.103Z,68.15
2022-11-20T15:06:07.487Z,68.22
2022-11-20T15:08:54.232Z,67.97
2022-11-20T15:11:40.429Z,68.00
2022-11-20T15:14:27.777Z,68.05
2022-11-20T15:17:13.534Z,68.31
2022-11-20T15:20:01.111Z,68.04
2022-11-20T15:22:48.399Z,68.04
2022-11-20T15:25:34.563Z,68.26
2022-11-20T15:28:26.630Z,68.05
2022-11-20T15:31:17.596Z,68.08
2022-11-20T15:34:03.616Z,68.15
2022-11-20T15:36:49.446Z,68.32
2022-11-20T15:39:35.448Z,68.27
2022-11-20T15:42:21.436Z,68.28
2022-11-20T15:45:07.506Z,68.34
2022-11-20T15:47:53.297Z,68.05
2022-11-20T15:50:44.965Z,68.13
2022-11-20T15:53:30.790Z,68.11
2022-11-20T15:56:16.783Z,68.26
2022-11-20T15:59:02.524Z,67.92
2022-11-20T16:01:48.563Z,67.92
2022-11-20T16:04:34.466Z,68.11
2022-11-20T16:07:20.470Z,68.08
2022-11-20T16:10:06.508Z,68.15
2022-11-20T16:13:11.939Z,67.86
2022-11-20T16:15:59.232Z,68.14
2022-11-20T16:18:45.014Z,68.15
2022-11-20T16:21:32.508Z,68.09
2022-11-20T16:24:18.807Z,67.78
2022-11-20T16:27:04.530Z,67.71
2022-11-20T16:29:50.682Z,67.75
2022-11-20T16:32:36.353Z,68.04
2022-11-20T16:35:22.144Z,68.07
2022-11-20T16:38:08.097Z,68.09
2022-11-20T16:40:54.000Z,68.13
2022-11-20T16:43:45.214Z,67.93
2022-11-20T16:46:32.249Z,67.79
2022-11-20T16:49:18.641Z,68.06
2022-11-20T16:52:04.589Z,67.89
2022-11-20T16:54:50.629Z,67.84
2022-11-20T16:57:37.844Z,67.96
2022-11-20T17:00:23.624Z,67.80
2022-11-20T17:03:09.469Z,67.59
2022-11-20T17:05:55.236Z,67.56
2022-11-20T17:08:41.242Z,67.78
2022-11-20T17:11:27.716Z,67.64
2022-11-20T17:14:13.748Z,67.56
2022-11-20T17:16:59.776Z,67.73
2022-11-20T17:19:45.593Z,67.56
2022-11-20T17:22:31.819Z,67.67
2022-11-20T17:25:17.750Z,67.69
2022-11-20T17:28:04.033Z,67.89
2022-11-20T17:30:50.142Z,67.54
2022-11-20T17:33:37.282Z,67.96
2022-11-20T17:36:23.084Z,67.80
2022-11-20T17:39:08.910Z,68.15
2022-11-20T17:42:30.293Z,68.17
2022-11-20T17:45:16.393Z,67.82
2022-11-20T17:48:02.483Z,67.92
2022-11-20T17:50:48.466Z,67.86
2022-11-20T17:53:36.159Z,68.13
2022-11-20T17:56:40.624Z,68.21
2022-11-20T17:59:26.617Z,68.22
2022-11-20T18:02:12.586Z,68.31
2022-11-20T18:04:58.401Z,68.29
2022-11-20T18:07:43.995Z,67.90
2022-11-20T18:10:30.886Z,67.96
2022-11-20T18:13:16.526Z,67.77
2022-11-20T18:16:08.988Z,67.82
2022-11-20T18:18:59.063Z,68.05
2022-11-20T18:21:46.524Z,67.86
2022-11-20T18:24:32.798Z,67.86
2022-11-20T18:27:20.773Z,67.93
2022-11-20T18:30:07.405Z,67.89
2022-11-20T18:32:53.830Z,68.22
2022-11-20T18:35:43.004Z,67.75
2022-11-20T18:38:28.964Z,68.10
2022-11-20T18:41:35.951Z,68.03
2022-11-20T18:44:45.934Z,68.27
2022-11-20T18:47:37.762Z,68.23
2022-11-20T18:50:23.809Z,68.35
2022-11-20T18:53:09.962Z,68.40
2022-11-20T18:55:56.369Z,68.39
2022-11-20T18:58:42.421Z,68.25
2022-11-20T19:01:28.307Z,68.35
2022-11-20T19:04:16.013Z,68.35
2022-11-20T19:07:01.868Z,68.42
2022-11-20T19:09:52.718Z,68.21
2022-11-20T19:12:39.038Z,68.64
2022-11-20T19:15:25.154Z,68.51
2022-11-20T19:18:11.234Z,68.27
2022-11-20T19:20:57.948Z,68.33
2022-11-20T19:23:48.529Z,68.25
2022-11-20T19:26:38.298Z,68.47
2022-11-20T19:29:25.536Z,68.54
2022-11-20T19:32:12.313Z,68.32
2022-11-20T19:34:59.077Z,68.57
2022-11-20T19:37:45.923Z,68.71
2022-11-20T19:40:31.992Z,68.67
2022-11-20T19:43:18.777Z,68.55
2022-11-20T19:46:05.075Z,68.71
2022-11-20T19:48:51.776Z,68.62
2022-11-20T19:51:39.705Z,68.43
2022-11-20T19:54:26.040Z,68.38
2022-11-20T19:57:12.168Z,68.44
2022-11-20T19:59:58.825Z,68.55
2022-11-20T20:02:44.977Z,68.43
2022-11-20T20:05:31.106Z,68.58
2022-11-20T20:08:17.319Z,68.62
2022-11-20T20:11:18.821Z,68.47
2022-11-20T20:14:10.444Z,68.60
2022-11-20T20:16:56.652Z,68.72
2022-11-20T20:19:42.791Z,68.53
2022-11-20T20:22:30.591Z,68.62
2022-11-20T20:25:16.284Z,68.74
2022-11-20T20:28:02.362Z,68.45
2022-11-20T20:30:48.452Z,68.41
2022-11-20T20:33:36.636Z,68.43
2022-11-20T20:36:23.892Z,68.26
2022-11-20T20:39:10.940Z,68.06
2022-11-20T20:41:56.854Z,68.37
2022-11-20T20:45:02.327Z,68.38
2022-11-20T20:47:48.387Z,68.30
2022-11-20T20:50:34.415Z,68.36
2022-11-20T20:53:20.524Z,68.50
2022-11-20T20:56:07.072Z,68.34
2022-11-20T20:58:52.890Z,68.41
2022-11-20T21:01:39.094Z,68.49
2022-11-20T21:04:25.211Z,68.56
2022-11-20T21:07:13.585Z,68.60
2022-11-20T21:09:59.737Z,68.46
2022-11-20T21:12:45.736Z,68.76
2022-11-20T21:15:31.925Z,68.48
2022-11-20T21:18:19.749Z,68.52
2022-11-20T21:21:26.326Z,68.45
2022-11-20T21:24:12.422Z,68.27
2022-11-20T21:26:58.950Z,68.33
2022-11-20T21:29:44.955Z,68.64
2022-11-20T21:32:33.695Z,68.43
2022-11-20T21:35:19.800Z,68.58
2022-11-20T21:38:05.530Z,68.47
2022-11-20T21:40:51.382Z,68.41
2022-11-20T21:43:37.754Z,68.70
2022-11-20T21:46:23.731Z,68.81
2022-11-20T21:49:10.544Z,68.75
2022-11-20T21:51:56.493Z,68.69
2022-11-20T21:54:42.573Z,68.62
2022-11-20T21:57:28.311Z,68.61
2022-11-20T22:00:14.555Z,68.64
2022-11-20T22:03:00.391Z,68.70
2022-11-20T22:05:59.642Z,68.93
2022-11-20T22:08:45.923Z,69.03
2022-11-20T22:11:31.653Z,69.09
2022-11-20T22:14:24.090Z,69.14
2022-11-20T22:17:13.614Z,69.23
2022-11-20T22:19:59.428Z,69.17
2022-11-20T22:22:45.076Z,68.85
2022-11-20T22:25:32.007Z,69.03
2022-11-20T22:28:18.093Z,68.98
2022-11-20T22:31:06.116Z,69.04
2022-11-20T22:33:52.435Z,68.79
2022-11-20T22:36:38.906Z,69.17
2022-11-20T22:39:24.975Z,69.24
2022-11-20T22:42:10.958Z,68.91
2022-11-20T22:44:56.912Z,68.89
2022-11-20T22:47:42.722Z,69.04
2022-11-20T22:50:28.620Z,68.93
2022-11-20T22:53:14.625Z,69.14
2022-11-20T22:56:01.495Z,68.84
2022-11-20T22:58:52.004Z,68.84
2022-11-20T23:01:38.466Z,69.04
2022-11-20T23:04:24.355Z,69.19
2022-11-20T23:07:10.491Z,69.27
2022-11-20T23:09:56.218Z,69.31
2022-11-20T23:12:41.937Z,69.39
2022-11-20T23:15:27.704Z,69.50
2022-11-20T23:18:13.678Z,69.28
2022-11-20T23:21:12.960Z,69.16
2022-11-20T23:23:59.563Z,69.34
2022-11-20T23:26:47.951Z,69.44
2022-11-20T23:29:34.056Z,69.57
2022-11-20T23:32:19.803Z,69.65
2022-11-20T23:35:05.748Z,69.46
2022-11-20T23:37:51.919Z,69.42
2022-11-20T23:40:41.243Z,69.44
2022-11-20T23:43:28.142Z,69.28
2022-11-20T23:46:16.714Z,69.47
2022-11-20T23:49:04.040Z,69.09
2022-11-20T23:51:49.704Z,69.52
2022-11-20T23:54:35.441Z,69.22
2022-11-20T23:57:21.359Z,69.32
